< < Back
Terminal Aerodrome Forecast


Current Version              Previous Versions:   1  2  3  4  5  6  7  8  9  

Terminal Aerodrome Forecast

724
FTUS44 KMOB 110534
TAFMOB
TAF
KMOB 110534Z 1106/1206 22006KT P6SM SKC
     FM111600 23012G18KT P6SM SKC
     FM120000 21007KT P6SM SCT250=

Latest METAR

023
SAUS80 KWBC 111000
MTRMOB
METAR KMOB 110956Z AUTO 23005KT 10SM CLR 06/02 A3020 RMK AO2 SLP226
T00610022


USA.gov is the U.S. government's official web portal to all federal, state and local government web resources and services.